createdAt,value
2019-03-29T00:01:56.428Z,97246.06
2019-03-29T00:04:22.598Z,97243.20
2019-03-29T00:06:48.758Z,97233.92
2019-03-29T00:09:14.901Z,97240.70
2019-03-29T00:11:41.023Z,97240.83
2019-03-29T00:14:07.267Z,97231.80
2019-03-29T00:16:33.436Z,97233.83
2019-03-29T00:18:59.571Z,97232.53
2019-03-29T00:21:25.699Z,97232.41
2019-03-29T00:24:05.957Z,97229.66
2019-03-29T00:26:20.016Z,97227.76
2019-03-29T00:28:46.157Z,97226.66
2019-03-29T00:31:12.330Z,97218.95
2019-03-29T00:33:38.455Z,97211.61
2019-03-29T00:36:04.601Z,97215.76
2019-03-29T00:38:30.837Z,97224.56
2019-03-29T00:40:57.024Z,97213.40
2019-03-29T00:43:23.062Z,97212.33
2019-03-29T00:45:49.622Z,97214.13
2019-03-29T00:48:15.804Z,97203.13
2019-03-29T00:50:41.930Z,97207.64
2019-03-29T00:53:08.951Z,97215.66
2019-03-29T00:55:35.325Z,97214.22
2019-03-29T00:58:01.451Z,97213.13
2019-03-29T01:00:31.134Z,97206.22
2019-03-29T01:02:55.995Z,97206.67
2019-03-29T01:05:22.158Z,97206.80
2019-03-29T01:07:48.283Z,97206.91
2019-03-29T01:10:14.440Z,97214.13
2019-03-29T01:12:40.665Z,97206.66
2019-03-29T01:15:08.985Z,97200.34
2019-03-29T01:17:35.291Z,97197.14
2019-03-29T01:20:02.157Z,97203.59
2019-03-29T01:22:28.281Z,97200.27
2019-03-29T01:24:54.417Z,97208.22
2019-03-29T01:27:20.491Z,97206.06
2019-03-29T01:29:46.602Z,97203.66
2019-03-29T01:32:12.774Z,97199.28
2019-03-29T01:34:38.900Z,97196.67
2019-03-29T01:37:05.105Z,97205.81
2019-03-29T01:39:31.239Z,97209.15
2019-03-29T01:41:57.366Z,97210.83
2019-03-29T01:44:23.496Z,97209.29
2019-03-29T01:46:49.622Z,97212.79
2019-03-29T01:49:16.852Z,97209.63
2019-03-29T01:51:42.994Z,97210.09
2019-03-29T01:54:09.152Z,97200.61
2019-03-29T01:56:35.283Z,97199.27
2019-03-29T01:59:01.436Z,97198.55
2019-03-29T02:01:28.383Z,97209.00
2019-03-29T02:03:54.700Z,97200.78
2019-03-29T02:06:20.929Z,97205.16
2019-03-29T02:08:47.113Z,97210.14
2019-03-29T02:11:13.380Z,97207.78
2019-03-29T02:13:40.380Z,97215.87
2019-03-29T02:16:06.535Z,97215.99
2019-03-29T02:18:32.674Z,97196.79
2019-03-29T02:20:58.822Z,97218.14
2019-03-29T02:23:24.972Z,97221.38
2019-03-29T02:25:51.092Z,97241.64
2019-03-29T02:28:17.258Z,97239.86
2019-03-29T02:30:43.504Z,97245.34
2019-03-29T02:33:09.622Z,97244.97
2019-03-29T02:35:35.747Z,97242.83
2019-03-29T02:38:01.898Z,97256.01
2019-03-29T02:40:28.038Z,97262.78
2019-03-29T02:42:54.165Z,97260.17
2019-03-29T02:45:20.217Z,97265.27
2019-03-29T02:47:47.760Z,97269.53
2019-03-29T02:50:14.498Z,97269.41
2019-03-29T02:52:40.654Z,97272.02
2019-03-29T02:55:07.551Z,97265.03
2019-03-29T02:57:33.680Z,97273.79
2019-03-29T02:59:59.797Z,97272.86
2019-03-29T03:02:26.699Z,97273.95
2019-03-29T03:04:53.048Z,97271.67
2019-03-29T03:07:19.192Z,97285.22
2019-03-29T03:09:45.365Z,97275.36
2019-03-29T03:12:11.605Z,97271.45
2019-03-29T03:14:37.763Z,97270.71
2019-03-29T03:17:03.894Z,97260.86
2019-03-29T03:19:30.030Z,97265.03
2019-03-29T03:22:03.036Z,97266.33
2019-03-29T03:24:26.607Z,97258.63
2019-03-29T03:26:52.731Z,97263.34
2019-03-29T03:29:18.824Z,97270.97
2019-03-29T03:31:45.043Z,97270.03
2019-03-29T03:34:11.225Z,97270.63
2019-03-29T03:36:37.253Z,97277.37
2019-03-29T03:39:06.111Z,97285.80
2019-03-29T03:41:32.260Z,97282.72
2019-03-29T03:43:58.491Z,97282.59
2019-03-29T03:46:24.648Z,97283.31
2019-03-29T03:48:50.771Z,97288.53
2019-03-29T03:51:17.135Z,97284.73
2019-03-29T03:53:43.420Z,97282.94
2019-03-29T03:56:10.626Z,97264.31
2019-03-29T03:58:37.816Z,97254.33
2019-03-29T04:01:04.037Z,97251.28
2019-03-29T04:03:30.174Z,97269.30
2019-03-29T04:05:56.657Z,97275.48
2019-03-29T04:08:22.811Z,97267.88
2019-03-29T04:10:48.932Z,97279.75
2019-03-29T04:13:15.077Z,97268.60
2019-03-29T04:15:41.284Z,97261.82
2019-03-29T04:18:07.440Z,97285.09
2019-03-29T04:20:33.471Z,97276.67
2019-03-29T04:22:59.502Z,97285.70
2019-03-29T04:25:25.645Z,97287.82
2019-03-29T04:27:51.798Z,97293.77
2019-03-29T04:30:17.839Z,97292.21
2019-03-29T04:32:43.979Z,97294.23
2019-03-29T04:35:10.096Z,97277.98
2019-03-29T04:37:36.134Z,97290.45
2019-03-29T04:40:07.952Z,97280.59
2019-03-29T04:42:31.508Z,97277.63
2019-03-29T04:44:59.837Z,97277.15
2019-03-29T04:47:25.626Z,97283.80
2019-03-29T04:49:51.909Z,97276.55
2019-03-29T04:52:18.036Z,97277.98
2019-03-29T04:54:44.321Z,97276.89
2019-03-29T04:57:10.287Z,97287.23
2019-03-29T04:59:36.442Z,97290.53
2019-03-29T05:02:02.765Z,97292.44
2019-03-29T05:04:28.923Z,97284.73
2019-03-29T05:06:55.086Z,97295.07
2019-03-29T05:09:21.212Z,97290.91
2019-03-29T05:11:47.346Z,97281.64
2019-03-29T05:14:13.488Z,97288.42
2019-03-29T05:16:39.622Z,97299.09
2019-03-29T05:19:05.813Z,97297.31
2019-03-29T05:21:31.930Z,97295.05
2019-03-29T05:23:58.066Z,97290.20
2019-03-29T05:26:25.573Z,97298.03
2019-03-29T05:28:51.872Z,97298.01
2019-03-29T05:31:17.919Z,97296.36
2019-03-29T05:33:46.488Z,97295.52
2019-03-29T05:36:12.755Z,97291.27
2019-03-29T05:38:38.800Z,97289.48
2019-03-29T05:41:05.037Z,97289.72
2019-03-29T05:43:31.203Z,97288.30
2019-03-29T05:45:57.502Z,97283.20
2019-03-29T05:48:23.884Z,97279.16
2019-03-29T05:50:49.959Z,97286.39
2019-03-29T05:53:16.290Z,97280.46
2019-03-29T05:55:48.110Z,97276.09
2019-03-29T05:58:13.104Z,97280.47
2019-03-29T06:00:39.408Z,97275.00
2019-03-29T06:03:05.554Z,97282.36
2019-03-29T06:05:31.740Z,97280.94
2019-03-29T06:07:58.026Z,97282.38
2019-03-29T06:10:24.241Z,97289.02
2019-03-29T06:12:50.477Z,97296.02
2019-03-29T06:15:16.622Z,97287.12
2019-03-29T06:17:48.854Z,97282.73
2019-03-29T06:20:11.724Z,97278.44
2019-03-29T06:22:37.850Z,97286.16
2019-03-29T06:25:06.186Z,97291.01
2019-03-29T06:27:32.434Z,97294.70
2019-03-29T06:29:58.580Z,97293.64
2019-03-29T06:32:24.676Z,97296.01
2019-03-29T06:34:50.885Z,97283.67
2019-03-29T06:37:19.318Z,97290.20
2019-03-29T06:39:46.865Z,97284.39
2019-03-29T06:42:14.353Z,97291.27
2019-03-29T06:44:40.464Z,97289.13
2019-03-29T06:47:06.526Z,97291.62
2019-03-29T06:49:32.658Z,97284.49
2019-03-29T06:51:58.778Z,97283.20
2019-03-29T06:54:25.086Z,97284.02
2019-03-29T06:56:51.371Z,97282.81
2019-03-29T06:59:17.398Z,97279.23
2019-03-29T07:01:46.345Z,97272.11
2019-03-29T07:04:13.427Z,97272.91
2019-03-29T07:06:39.551Z,97280.37
2019-03-29T07:09:05.739Z,97278.34
2019-03-29T07:11:31.767Z,97278.20
2019-03-29T07:13:58.265Z,97269.97
2019-03-29T07:16:24.424Z,97271.73
2019-03-29T07:18:50.469Z,97266.16
2019-03-29T07:21:21.822Z,97263.95
2019-03-29T07:23:44.635Z,97273.92
2019-03-29T07:26:10.756Z,97266.39
2019-03-29T07:28:36.884Z,97269.46
2019-03-29T07:31:03.067Z,97272.14
2019-03-29T07:33:29.746Z,97274.23
2019-03-29T07:35:55.951Z,97266.30
2019-03-29T07:38:22.132Z,97266.85
2019-03-29T07:40:48.274Z,97263.70
2019-03-29T07:43:14.431Z,97254.84
2019-03-29T07:45:43.430Z,97254.07
2019-03-29T07:48:09.711Z,97251.02
2019-03-29T07:50:37.143Z,97259.60
2019-03-29T07:53:06.194Z,97251.70
2019-03-29T07:55:32.441Z,97250.22
2019-03-29T07:57:58.811Z,97252.72
2019-03-29T08:00:25.045Z,97245.28
2019-03-29T08:02:51.163Z,97257.32
2019-03-29T08:05:18.097Z,97253.23
2019-03-29T08:07:45.919Z,97261.11
2019-03-29T08:10:24.178Z,97257.73
2019-03-29T08:12:41.265Z,97255.19
2019-03-29T08:15:09.747Z,97245.66
2019-03-29T08:17:37.985Z,97246.56
2019-03-29T08:20:36.343Z,97237.98
2019-03-29T08:25:24.666Z,97221.03
2019-03-29T08:28:21.251Z,97227.63
2019-03-29T08:30:34.705Z,97225.60
2019-03-29T08:33:13.130Z,97222.91
2019-03-29T08:35:39.419Z,97212.84
2019-03-29T08:38:06.376Z,97199.33
2019-03-29T08:40:32.791Z,97197.03
2019-03-29T08:42:59.036Z,97196.49
2019-03-29T08:45:27.137Z,97199.39
2019-03-29T08:47:53.422Z,97202.28
2019-03-29T08:50:19.673Z,97208.41
2019-03-29T08:52:53.105Z,97206.81
2019-03-29T08:55:19.251Z,97200.08
2019-03-29T08:57:45.539Z,97191.61
2019-03-29T09:00:11.966Z,97190.64
2019-03-29T09:02:38.283Z,97202.45
2019-03-29T09:05:04.633Z,97206.62
2019-03-29T09:07:44.054Z,97210.14
2019-03-29T09:09:59.016Z,97217.91
2019-03-29T09:12:25.170Z,97209.50
2019-03-29T09:14:51.193Z,97203.90
2019-03-29T09:17:17.404Z,97206.03
2019-03-29T09:19:43.510Z,97211.81
2019-03-29T09:22:09.740Z,97204.71
2019-03-29T09:24:35.883Z,97200.92
2019-03-29T09:27:02.003Z,97206.84
2019-03-29T09:29:28.227Z,97201.42
2019-03-29T09:31:54.590Z,97196.64
2019-03-29T09:34:23.501Z,97191.20
2019-03-29T09:36:49.694Z,97190.54
2019-03-29T09:39:15.861Z,97192.19
2019-03-29T09:41:42.077Z,97185.53
2019-03-29T09:44:08.393Z,97194.78
2019-03-29T09:46:34.711Z,97202.06
2019-03-29T09:49:00.871Z,97195.63
2019-03-29T09:51:27.029Z,97197.60
2019-03-29T09:53:53.178Z,97189.02
2019-03-29T09:56:21.423Z,97178.06
2019-03-29T09:58:47.724Z,97185.65
2019-03-29T10:01:22.950Z,97184.16
2019-03-29T10:03:51.342Z,97185.30
2019-03-29T10:06:17.473Z,97174.38
2019-03-29T10:08:43.645Z,97179.00
2019-03-29T10:11:09.880Z,97171.20
2019-03-29T10:13:36.003Z,97174.47
2019-03-29T10:16:02.156Z,97170.98
2019-03-29T10:18:34.578Z,97170.15
2019-03-29T10:21:00.885Z,97156.08
2019-03-29T10:23:32.978Z,97158.72
2019-03-29T10:26:06.074Z,97156.06
2019-03-29T10:28:32.570Z,97151.70
2019-03-29T10:30:58.747Z,97150.54
2019-03-29T10:33:25.061Z,97152.16
2019-03-29T10:35:52.722Z,97150.00
2019-03-29T10:38:19.216Z,97145.48
2019-03-29T10:40:45.353Z,97147.78
2019-03-29T10:43:11.465Z,97149.87
2019-03-29T10:45:40.283Z,97153.70
2019-03-29T10:48:05.643Z,97148.00
2019-03-29T10:50:31.774Z,97138.52
2019-03-29T10:52:57.905Z,97138.29
2019-03-29T10:55:26.075Z,97143.02
2019-03-29T10:57:55.373Z,97132.59
2019-03-29T11:00:23.555Z,97130.59
2019-03-29T11:02:49.851Z,97128.41
2019-03-29T11:05:16.097Z,97132.86
2019-03-29T11:07:42.336Z,97126.64
2019-03-29T11:10:12.187Z,97122.36
2019-03-29T11:12:38.407Z,97128.47
2019-03-29T11:15:06.753Z,97136.67
2019-03-29T11:17:33.239Z,97138.13
2019-03-29T11:19:59.369Z,97137.14
2019-03-29T11:22:25.584Z,97125.92
2019-03-29T11:24:51.712Z,97117.76
2019-03-29T11:27:17.981Z,97117.83
2019-03-29T11:29:49.213Z,97110.83
2019-03-29T11:32:17.881Z,97105.62
2019-03-29T11:34:44.001Z,97098.53
2019-03-29T11:37:10.321Z,97092.70
2019-03-29T11:39:36.559Z,97073.27
2019-03-29T11:42:03.662Z,97067.91
2019-03-29T11:44:30.360Z,97067.59
2019-03-29T11:46:56.684Z,97075.45
2019-03-29T11:49:22.702Z,97061.36
2019-03-29T11:51:48.823Z,97058.63
2019-03-29T11:54:14.979Z,97053.41
2019-03-29T11:56:41.101Z,97056.44
2019-03-29T11:59:07.270Z,97051.66
2019-03-29T12:01:33.455Z,97048.56
2019-03-29T12:03:59.679Z,97039.11
2019-03-29T12:06:25.807Z,97041.74
2019-03-29T12:08:51.944Z,97030.31
2019-03-29T12:11:18.076Z,97032.47
2019-03-29T12:13:44.648Z,97039.66
2019-03-29T12:16:10.777Z,97033.23
2019-03-29T12:18:38.432Z,97034.48
2019-03-29T12:21:04.556Z,97024.30
2019-03-29T12:23:30.758Z,97028.86
2019-03-29T12:25:56.876Z,97031.77
2019-03-29T12:28:22.999Z,97025.08
2019-03-29T12:30:49.223Z,97024.94
2019-03-29T12:33:15.231Z,97018.16
2019-03-29T12:35:41.418Z,97018.93
2019-03-29T12:38:07.552Z,97012.23
2019-03-29T12:40:33.602Z,97012.55
2019-03-29T12:42:59.730Z,97011.71
2019-03-29T12:45:25.900Z,97006.09
2019-03-29T12:47:51.987Z,97013.37
2019-03-29T12:50:18.152Z,96999.45
2019-03-29T12:52:44.292Z,97003.69
2019-03-29T12:55:10.432Z,96998.67
2019-03-29T12:57:38.885Z,96997.16
2019-03-29T13:00:06.298Z,96990.48
2019-03-29T13:02:34.492Z,96995.16
2019-03-29T13:05:00.466Z,96991.11
2019-03-29T13:07:26.513Z,96990.08
2019-03-29T13:09:53.199Z,96993.36
2019-03-29T13:12:19.330Z,96996.45
2019-03-29T13:14:45.472Z,96992.27
2019-03-29T13:17:11.625Z,96991.03
2019-03-29T13:19:38.822Z,96991.13
2019-03-29T13:22:05.907Z,96986.97
2019-03-29T13:24:31.927Z,96983.86
2019-03-29T13:26:57.944Z,96979.41
2019-03-29T13:29:24.127Z,96980.84
2019-03-29T13:31:50.233Z,96976.86
2019-03-29T13:34:16.368Z,96966.45
2019-03-29T13:36:42.421Z,96962.27
2019-03-29T13:39:08.965Z,96958.21
2019-03-29T13:41:35.090Z,96959.78
2019-03-29T13:44:01.217Z,96954.55
2019-03-29T13:46:27.350Z,96950.88
2019-03-29T13:48:53.371Z,96942.70
2019-03-29T13:51:19.506Z,96949.77
2019-03-29T13:53:45.523Z,96946.41
2019-03-29T13:56:11.717Z,96948.88
2019-03-29T13:58:37.845Z,96953.36
2019-03-29T14:01:04.001Z,96952.55
2019-03-29T14:03:30.045Z,96944.21
2019-03-29T14:05:56.168Z,96956.27
2019-03-29T14:08:22.295Z,96946.03
2019-03-29T14:10:48.411Z,96940.99
2019-03-29T14:13:14.565Z,96941.59
2019-03-29T14:15:40.592Z,96937.64
2019-03-29T14:18:06.751Z,96933.79
2019-03-29T14:20:33.019Z,96932.78
2019-03-29T14:23:00.467Z,96928.56
2019-03-29T14:25:26.583Z,96927.08
2019-03-29T14:27:52.627Z,96925.68
2019-03-29T14:30:18.873Z,96922.39
2019-03-29T14:32:45.453Z,96915.22
2019-03-29T14:35:11.587Z,96922.96
2019-03-29T14:37:37.610Z,96917.61
2019-03-29T14:40:06.164Z,96917.22
2019-03-29T14:42:33.171Z,96927.02
2019-03-29T14:44:59.324Z,96919.54
2019-03-29T14:47:38.154Z,96919.20
2019-03-29T14:49:53.379Z,96920.60
2019-03-29T14:52:19.512Z,96914.66
2019-03-29T14:54:45.546Z,96915.25
2019-03-29T14:57:11.590Z,96918.60
2019-03-29T14:59:37.724Z,96914.52
2019-03-29T15:02:03.955Z,96901.92
2019-03-29T15:04:30.087Z,96910.12
2019-03-29T15:06:56.206Z,96903.31
2019-03-29T15:09:22.386Z,96900.59
2019-03-29T15:11:48.471Z,96899.36
2019-03-29T15:14:14.512Z,96894.94
2019-03-29T15:16:40.629Z,96899.66
2019-03-29T15:19:09.054Z,96896.31
2019-03-29T15:21:35.289Z,96900.55
2019-03-29T15:24:01.422Z,96890.63
2019-03-29T15:26:27.545Z,96893.38
2019-03-29T15:28:53.662Z,96895.70
2019-03-29T15:31:19.814Z,96889.55
2019-03-29T15:33:45.963Z,96886.16
2019-03-29T15:36:12.179Z,96889.70
2019-03-29T15:38:38.290Z,96892.12
2019-03-29T15:41:04.504Z,96902.94
2019-03-29T15:43:30.640Z,96899.01
2019-03-29T15:45:56.760Z,96900.42
2019-03-29T15:48:22.886Z,96898.02
2019-03-29T15:50:49.016Z,96889.92
2019-03-29T15:53:15.144Z,96892.03
2019-03-29T15:55:41.270Z,96896.01
2019-03-29T15:58:07.360Z,96895.07
2019-03-29T16:00:33.485Z,96896.06
2019-03-29T16:02:59.600Z,96895.81
2019-03-29T16:05:25.842Z,96896.70
2019-03-29T16:07:51.974Z,96900.37
2019-03-29T16:10:18.130Z,96901.14
2019-03-29T16:12:44.264Z,96907.13
2019-03-29T16:15:10.395Z,96904.17
2019-03-29T16:17:36.517Z,96901.19
2019-03-29T16:20:04.273Z,96907.24
2019-03-29T16:22:30.400Z,96902.43
2019-03-29T16:24:56.559Z,96904.40
2019-03-29T16:27:25.102Z,96904.89
2019-03-29T16:29:50.651Z,96900.03
2019-03-29T16:32:16.772Z,96905.47
2019-03-29T16:34:46.962Z,96906.53
2019-03-29T16:37:13.353Z,96913.28
2019-03-29T16:39:39.643Z,96916.38
2019-03-29T16:42:05.796Z,96924.72
2019-03-29T16:44:32.061Z,96916.09
2019-03-29T16:46:58.338Z,96916.51
2019-03-29T16:49:26.453Z,96913.17
2019-03-29T16:51:52.700Z,96911.78
2019-03-29T16:54:19.403Z,96910.10
2019-03-29T16:56:45.610Z,96908.33
2019-03-29T16:59:11.833Z,96912.61
2019-03-29T17:01:37.861Z,96914.13
2019-03-29T17:04:04.015Z,96908.52
2019-03-29T17:06:31.747Z,96912.84
2019-03-29T17:08:57.969Z,96910.91
2019-03-29T17:11:24.283Z,96901.93
2019-03-29T17:13:50.466Z,96910.91
2019-03-29T17:16:29.433Z,96916.05
2019-03-29T17:18:46.307Z,96914.66
2019-03-29T17:21:12.635Z,96921.02
2019-03-29T17:23:40.334Z,96921.48
2019-03-29T17:26:11.906Z,96920.14
2019-03-29T17:28:38.135Z,96922.76
2019-03-29T17:31:06.246Z,96920.36
2019-03-29T17:33:32.386Z,96922.56
2019-03-29T17:35:58.653Z,96922.44
2019-03-29T17:38:24.803Z,96928.06
2019-03-29T17:40:50.927Z,96928.35
2019-03-29T17:43:17.289Z,96933.62
2019-03-29T17:45:43.571Z,96934.05
2019-03-29T17:48:09.870Z,96944.71
2019-03-29T17:50:35.993Z,96944.73
2019-03-29T17:53:02.117Z,96941.12
2019-03-29T17:55:31.566Z,96943.16
2019-03-29T17:57:56.488Z,96941.61
2019-03-29T18:00:27.208Z,96942.01
2019-03-29T18:02:53.504Z,96941.50
2019-03-29T18:05:19.764Z,96944.98
2019-03-29T18:07:45.902Z,96943.40
2019-03-29T18:10:12.292Z,96940.94
2019-03-29T18:12:42.915Z,96937.50
2019-03-29T18:15:09.534Z,96937.53
2019-03-29T18:17:35.635Z,96939.20
2019-03-29T18:20:03.388Z,96942.23
2019-03-29T18:22:31.563Z,96946.36
2019-03-29T18:25:00.908Z,96943.87
2019-03-29T18:27:26.980Z,96947.84
2019-03-29T18:29:53.130Z,96943.90
2019-03-29T18:32:19.377Z,96939.28
2019-03-29T18:34:45.534Z,96942.27
2019-03-29T18:37:13.017Z,96935.66
2019-03-29T18:39:39.279Z,96943.58
2019-03-29T18:42:05.483Z,96940.63
2019-03-29T18:44:31.620Z,96939.62
2019-03-29T18:46:57.856Z,96940.11
2019-03-29T18:49:23.999Z,96939.13
2019-03-29T18:51:50.227Z,96940.45
2019-03-29T18:54:16.605Z,96938.65
2019-03-29T18:56:42.870Z,96927.27
2019-03-29T18:59:09.157Z,96938.28
2019-03-29T19:01:35.411Z,96936.16
2019-03-29T19:04:06.029Z,96946.17
2019-03-29T19:06:29.826Z,96946.81
2019-03-29T19:08:58.067Z,96935.13
2019-03-29T19:11:26.243Z,96936.73
2019-03-29T19:13:52.543Z,96938.53
2019-03-29T19:16:18.799Z,96936.52
2019-03-29T19:18:44.947Z,96941.11
2019-03-29T19:21:11.273Z,96938.28
2019-03-29T19:23:37.604Z,96938.42
2019-03-29T19:26:06.783Z,96944.97
2019-03-29T19:28:42.052Z,96941.98
2019-03-29T19:31:06.587Z,96941.28
2019-03-29T19:33:32.877Z,96939.30
2019-03-29T19:36:02.903Z,96932.05
2019-03-29T19:38:41.014Z,96932.81
2019-03-29T19:41:07.148Z,96943.17
2019-03-29T19:43:33.427Z,96932.81
2019-03-29T19:45:59.553Z,96933.27
2019-03-29T19:48:25.861Z,96931.94
2019-03-29T19:50:51.998Z,96925.81
2019-03-29T19:53:18.154Z,96935.81
2019-03-29T19:55:47.189Z,96927.53
2019-03-29T19:58:13.412Z,96925.02
2019-03-29T20:00:40.350Z,96931.07
2019-03-29T20:03:06.508Z,96934.02
2019-03-29T20:05:32.637Z,96935.80
2019-03-29T20:08:10.976Z,96930.70
2019-03-29T20:10:37.185Z,96933.12
2019-03-29T20:13:03.470Z,96925.67
2019-03-29T20:15:29.786Z,96932.23
2019-03-29T20:17:55.995Z,96931.83
2019-03-29T20:20:29.135Z,96930.63
2019-03-29T20:22:56.276Z,96930.94
2019-03-29T20:25:23.212Z,96931.09
2019-03-29T20:27:49.492Z,96929.05
2019-03-29T20:30:16.054Z,96933.77
2019-03-29T20:32:43.245Z,96923.99
2019-03-29T20:35:09.380Z,96927.23
2019-03-29T20:37:35.544Z,96914.03
2019-03-29T20:40:02.488Z,96916.56
2019-03-29T20:45:15.591Z,96913.38
2019-03-29T20:47:42.724Z,96910.41
2019-03-29T20:51:08.757Z,96910.55
2019-03-29T20:53:39.168Z,96905.61
2019-03-29T20:56:06.693Z,96901.14
2019-03-29T20:58:33.178Z,96908.78
2019-03-29T21:01:01.352Z,96908.45
2019-03-29T21:03:27.636Z,96899.91
2019-03-29T21:05:54.022Z,96900.53
2019-03-29T21:08:20.343Z,96900.00
2019-03-29T21:10:55.577Z,96897.68
2019-03-29T21:13:16.572Z,96890.89
2019-03-29T21:15:44.659Z,96899.69
2019-03-29T21:18:10.838Z,96894.33
2019-03-29T21:20:37.118Z,96892.63
2019-03-29T21:23:03.417Z,96896.53
2019-03-29T21:25:29.559Z,96900.73
2019-03-29T21:27:55.787Z,96893.46
2019-03-29T21:30:25.871Z,96897.70
2019-03-29T21:32:53.835Z,96907.02
2019-03-29T21:35:20.104Z,96909.79
2019-03-29T21:37:48.427Z,96907.11
2019-03-29T21:40:15.220Z,96903.26
2019-03-29T21:42:41.463Z,96900.86
2019-03-29T21:45:08.270Z,96897.52
2019-03-29T21:47:37.950Z,96899.60
2019-03-29T21:50:09.213Z,96897.27
2019-03-29T21:52:39.054Z,96890.66
2019-03-29T21:55:05.818Z,96898.81
2019-03-29T21:57:31.987Z,96897.14
2019-03-29T21:59:58.186Z,96894.48
2019-03-29T22:02:24.469Z,96890.34
2019-03-29T22:04:50.684Z,96890.84
2019-03-29T22:07:18.727Z,96892.41
2019-03-29T22:09:44.900Z,96889.39
2019-03-29T22:12:11.158Z,96883.97
2019-03-29T22:14:37.284Z,96880.52
2019-03-29T22:17:03.558Z,96885.42
2019-03-29T22:19:29.725Z,96876.52
2019-03-29T22:21:55.883Z,96877.93
2019-03-29T22:24:22.047Z,96873.09
2019-03-29T22:26:48.167Z,96878.00
2019-03-29T22:29:14.201Z,96872.77
2019-03-29T22:31:40.278Z,96871.89
2019-03-29T22:34:06.427Z,96870.13
2019-03-29T22:36:32.475Z,96865.37
2019-03-29T22:38:58.597Z,96871.44
2019-03-29T22:41:24.753Z,96869.58
2019-03-29T22:43:50.890Z,96870.55
2019-03-29T22:46:18.059Z,96868.55
2019-03-29T22:48:52.084Z,96866.69
2019-03-29T22:51:12.002Z,96864.62
2019-03-29T22:53:38.130Z,96861.86
2019-03-29T22:56:04.065Z,96863.45
2019-03-29T22:58:30.089Z,96868.22
2019-03-29T23:00:56.530Z,96862.63
2019-03-29T23:03:22.691Z,96860.63
2019-03-29T23:05:48.821Z,96870.47
2019-03-29T23:08:14.944Z,96871.38
2019-03-29T23:10:41.122Z,96876.89
2019-03-29T23:13:07.237Z,96874.56
2019-03-29T23:15:33.399Z,96868.16
2019-03-29T23:17:59.522Z,96865.32
2019-03-29T23:20:25.714Z,96860.37
2019-03-29T23:22:51.843Z,96857.67
2019-03-29T23:25:18.015Z,96853.05
2019-03-29T23:27:44.046Z,96854.03
2019-03-29T23:30:10.844Z,96848.72
2019-03-29T23:32:36.984Z,96853.14
2019-03-29T23:35:06.088Z,96852.09
2019-03-29T23:37:32.259Z,96855.34
2019-03-29T23:39:58.311Z,96861.33
2019-03-29T23:42:24.474Z,96858.02
2019-03-29T23:44:50.637Z,96863.53
2019-03-29T23:47:16.655Z,96870.83
2019-03-29T23:49:42.716Z,96868.96
2019-03-29T23:52:08.832Z,96870.41
2019-03-29T23:54:34.856Z,96865.42
2019-03-29T23:57:00.994Z,96870.66
2019-03-29T23:59:27.216Z,96869.16
